Time,TemperatureF,DewpointF,PressureIn,WindDirection,WindDirectionDegrees,WindSpeedMPH,WindSpeedGustMPH,Humidity,HourlyPrecipIn,Conditions,Clouds,dailyrainin,SoftwareType,DateUTC
2013-09-16 00:22:00,78.0,66.0,-100.00,North,-999,-999.0,-999.0,65,0.00,,,0.00,,2013-09-16 05:22:00,
2013-09-16 00:52:00,78.0,66.0,-100.00,North,-999,-999.0,-999.0,66,0.00,,,0.00,,2013-09-16 05:52:00,
2013-09-16 01:22:00,77.0,66.0,-100.00,North,-999,-999.0,-999.0,68,0.00,,,0.00,,2013-09-16 06:22:00,
2013-09-16 01:52:00,76.0,66.0,-100.00,North,-999,-999.0,-999.0,70,0.00,,,0.00,,2013-09-16 06:52:00,
2013-09-16 02:22:00,76.0,67.0,-100.00,North,-999,-999.0,-999.0,73,0.00,,,0.00,,2013-09-16 07:22:00,
2013-09-16 02:52:00,75.0,67.0,-100.00,North,-999,-999.0,-999.0,76,0.00,,,0.00,,2013-09-16 07:52:00,
2013-09-16 03:22:00,74.0,67.0,-100.00,North,-999,-999.0,-999.0,78,0.00,,,-99.99,,2013-09-16 08:22:00,
2013-09-16 03:52:00,73.0,67.0,-100.00,North,-999,-999.0,-999.0,80,0.00,,,0.00,,2013-09-16 08:52:00,
2013-09-16 04:11:00,73.0,67.0,-100.00,North,-999,-999.0,-999.0,81,0.00,,,0.00,,2013-09-16 09:11:00,
2013-09-16 04:22:00,73.0,67.0,-100.00,North,-999,-999.0,-999.0,81,0.00,,,0.00,,2013-09-16 09:22:00,
2013-09-16 04:43:00,71.0,66.0,-100.00,North,-999,-999.0,-999.0,85,0.00,,,0.00,,2013-09-16 09:43:00,
2013-09-16 04:53:00,71.0,66.0,-100.00,North,-999,-999.0,-999.0,85,0.00,,,0.00,,2013-09-16 09:53:00,
2013-09-16 05:23:00,69.0,66.0,-100.00,North,-999,-999.0,-999.0,88,-99.99,,,0.00,,2013-09-16 10:23:00,
2013-09-16 05:42:00,69.0,66.0,-100.00,North,-999,-999.0,-999.0,90,0.00,,,0.00,,2013-09-16 10:42:00,
2013-09-16 05:53:00,69.0,66.0,-100.00,North,-999,-999.0,-999.0,90,0.00,,,0.00,,2013-09-16 10:53:00,
2013-09-16 06:22:00,68.0,65.0,-100.00,North,-999,-999.0,-999.0,92,0.00,,,0.00,,2013-09-16 11:22:00,
2013-09-16 06:52:00,67.0,65.0,-100.00,North,-999,-999.0,-999.0,93,0.00,,,0.00,,2013-09-16 11:52:00,
2013-09-16 07:01:00,67.0,65.0,-100.00,North,-999,-999.0,-999.0,93,0.00,,,0.00,,2013-09-16 12:01:00,
2013-09-16 07:22:00,67.0,65.0,-100.00,North,-999,-999.0,-999.0,95,0.00,,,0.00,,2013-09-16 12:22:00,
2013-09-16 07:52:00,67.0,66.0,-100.00,North,-999,-999.0,-999.0,98,0.00,,,0.00,,2013-09-16 12:52:00,
2013-09-16 08:02:00,67.0,66.0,-100.00,North,-999,-999.0,-999.0,98,0.00,,,0.00,,2013-09-16 13:02:00,
2013-09-16 08:21:00,69.0,69.0,-100.00,North,-999,-999.0,-999.0,99,0.00,,,0.00,,2013-09-16 13:21:00,
2013-09-16 08:52:00,73.0,70.0,-100.00,North,-999,-999.0,-999.0,91,0.00,,,0.00,,2013-09-16 13:52:00,
2013-09-16 09:02:00,73.0,70.0,-100.00,North,-999,-999.0,-999.0,91,0.00,,,0.00,,2013-09-16 14:02:00,
2013-09-16 09:22:00,75.0,71.0,-100.00,North,-999,-999.0,-999.0,87,0.00,,,0.00,,2013-09-16 14:22:00,
2013-09-16 09:52:00,76.0,71.0,-100.00,North,-999,-999.0,-999.0,83,0.00,,,0.00,,2013-09-16 14:52:00,
2013-09-16 10:22:00,77.0,71.0,-100.00,North,-999,-999.0,-999.0,81,0.00,,,0.00,,2013-09-16 15:22:00,
2013-09-16 10:33:00,77.0,71.0,-100.00,North,-999,-999.0,-999.0,81,0.00,,,0.00,,2013-09-16 15:33:00,
2013-09-16 10:53:00,78.0,69.0,-100.00,North,-999,-999.0,-999.0,75,0.00,,,0.00,,2013-09-16 15:53:00,
2013-09-16 11:03:00,78.0,69.0,-100.00,North,-999,-999.0,-999.0,75,0.00,,,0.00,,2013-09-16 16:03:00,
2013-09-16 11:23:00,78.0,67.0,-100.00,North,-999,-999.0,-999.0,68,0.00,,,0.00,,2013-09-16 16:23:00,
2013-09-16 11:52:00,80.0,68.0,-100.00,North,-999,-999.0,-999.0,65,0.00,,,0.00,,2013-09-16 16:52:00,
2013-09-16 12:23:00,83.0,67.0,-100.00,North,-999,-999.0,-999.0,60,0.00,,,0.00,,2013-09-16 17:23:00,
2013-09-16 12:53:00,83.0,67.0,-100.00,North,-999,-999.0,-999.0,58,0.00,,,0.00,,2013-09-16 17:53:00,
2013-09-16 13:22:00,84.0,67.0,-100.00,North,-999,-999.0,-999.0,57,0.00,,,0.00,,2013-09-16 18:22:00,
2013-09-16 13:52:00,86.0,66.0,-100.00,North,-999,-999.0,-999.0,50,0.00,,,0.00,,2013-09-16 18:52:00,
2013-09-16 14:22:00,86.0,66.0,-100.00,North,-999,-999.0,-999.0,52,0.00,,,0.00,,2013-09-16 19:22:00,
2013-09-16 14:53:00,86.0,66.0,-100.00,North,-999,-999.0,-999.0,51,0.00,,,-99.99,,2013-09-16 19:53:00,
2013-09-16 15:22:00,85.0,65.0,-100.00,North,-999,-999.0,-999.0,51,0.00,,,0.00,,2013-09-16 20:22:00,
2013-09-16 15:52:00,86.0,65.0,-100.00,North,-999,-999.0,-999.0,50,0.00,,,0.00,,2013-09-16 20:52:00,
2013-09-16 16:21:00,86.0,66.0,-100.00,North,-999,-999.0,-999.0,51,0.00,,,0.00,,2013-09-16 21:21:00,
2013-09-16 16:55:00,86.0,67.0,-100.00,North,-999,-999.0,-999.0,52,0.00,,,0.00,,2013-09-16 21:55:00,
2013-09-16 17:13:00,86.0,66.0,-100.00,North,-999,-999.0,-999.0,51,0.00,,,0.00,,2013-09-16 22:13:00,
2013-09-16 17:24:00,86.0,66.0,-100.00,North,-999,-999.0,-999.0,51,0.00,,,0.00,,2013-09-16 22:24:00,
2013-09-16 17:54:00,86.0,66.0,-100.00,North,-999,-999.0,-999.0,51,0.00,,,0.00,,2013-09-16 22:54:00,
2013-09-16 18:22:00,85.0,64.0,-100.00,North,-999,-999.0,-999.0,50,-99.99,,,-99.99,,2013-09-16 23:22:00,
2013-09-16 18:52:00,85.0,64.0,-100.00,North,-999,-999.0,-999.0,50,0.00,,,0.00,,2013-09-16 23:52:00,
2013-09-16 19:21:00,78.0,70.0,-100.00,North,-999,-999.0,-999.0,76,0.00,,,0.00,,2013-09-17 00:21:00,
2013-09-16 19:52:00,76.0,70.0,-100.00,North,-999,-999.0,-999.0,82,0.00,,,0.00,,2013-09-17 00:52:00,
2013-09-16 20:21:00,73.0,72.0,-100.00,North,-999,-999.0,-999.0,96,0.01,,,0.01,,2013-09-17 01:21:00,
2013-09-16 20:52:00,69.0,69.0,-100.00,North,-999,-999.0,-999.0,100,0.37,,,0.37,,2013-09-17 01:52:00,
2013-09-16 21:22:00,70.0,70.0,-100.00,North,-999,-999.0,-999.0,100,0.49,,,0.50,,2013-09-17 02:22:00,
2013-09-16 21:52:00,70.0,70.0,-100.00,North,-999,-999.0,-999.0,100,0.17,,,0.54,,2013-09-17 02:52:00,
2013-09-16 22:02:00,70.0,70.0,-100.00,North,-999,-999.0,-999.0,100,0.17,,,0.54,,2013-09-17 03:02:00,
2013-09-16 22:23:00,71.0,71.0,-100.00,North,-999,-999.0,-999.0,100,0.05,,,0.55,,2013-09-17 03:23:00,
2013-09-16 22:54:00,70.0,70.0,-100.00,North,-999,-999.0,-999.0,100,0.01,,,0.55,,2013-09-17 03:54:00,
2013-09-16 23:24:00,70.0,70.0,-100.00,North,-999,-999.0,-999.0,100,0.03,,,0.58,,2013-09-17 04:24:00,
2013-09-16 23:53:00,71.0,71.0,-100.00,North,-999,-999.0,-999.0,100,0.04,,,0.59,,2013-09-17 04:53:00,